Time;durP1;ratioP1;P1;durP2;ratioP2;P2;SDS_P1;SDS_P2;PMS_P1;PMS_P2;Temp;Humidity;BMP_temperature;BMP_pressure;BME280_temperature;BME280_humidity;BME280_pressure;Samples;Min_cycle;Max_cycle;Signal;HPM_P1;HPM_P2
2021/06/10 00:00:45;;;;;;;11.85;8.35;;;;;;;18.31;58.00;101678.09;5082724;28;20080;-71
2021/06/10 00:03:11;;;;;;;11.25;9.20;;;;;;;18.33;57.92;101676.44;5085615;28;20107;-71
2021/06/10 00:05:37;;;;;;;15.50;8.85;;;;;;;18.34;57.30;101672.97;5074488;28;20032;-70
2021/06/10 00:08:03;;;;;;;10.98;8.68;;;;;;;18.36;57.49;101676.53;5069177;28;20035;-70
2021/06/10 00:10:30;;;;;;;10.75;8.00;;;;;;;18.39;57.18;101666.19;5095811;28;20469;-70
2021/06/10 00:12:56;;;;;;;10.30;8.00;;;;;;;18.35;57.16;101676.50;5089119;28;20031;-70
2021/06/10 00:15:25;;;;;;;10.07;8.25;;;;;;;18.30;57.22;101668.50;5077701;28;20028;-71
2021/06/10 00:17:51;;;;;;;10.82;8.00;;;;;;;18.30;56.95;101670.25;5093806;28;20024;-70
2021/06/10 00:20:20;;;;;;;8.75;7.38;;;;;;;18.29;56.36;101669.34;5094440;28;20056;-70
2021/06/10 00:22:46;;;;;;;8.70;7.70;;;;;;;18.32;56.32;101674.66;5091330;28;20480;-71
2021/06/10 00:25:12;;;;;;;11.55;8.18;;;;;;;18.29;56.06;101664.13;5088535;28;20115;-70
2021/06/10 00:27:39;;;;;;;10.20;7.43;;;;;;;18.28;55.87;101675.38;5076435;28;20059;-71
2021/06/10 00:30:11;;;;;;;10.95;8.20;;;;;;;18.24;55.84;101676.13;5075018;28;20028;-70
2021/06/10 00:32:37;;;;;;;8.95;7.25;;;;;;;18.20;55.66;101669.03;5060201;28;20028;-70
2021/06/10 00:35:05;;;;;;;10.43;7.10;;;;;;;18.20;55.27;101669.03;5072426;28;20146;-70
2021/06/10 00:37:30;;;;;;;9.30;6.63;;;;;;;18.24;55.19;101665.69;5072164;28;20021;-70
2021/06/10 00:39:56;;;;;;;11.48;6.82;;;;;;;18.17;55.18;101663.72;5073604;28;20489;-70
2021/06/10 00:42:21;;;;;;;8.90;6.30;;;;;;;18.02;55.73;101657.13;5082858;28;20092;-70
2021/06/10 00:44:47;;;;;;;10.57;6.65;;;;;;;17.96;55.59;101656.88;5094081;28;20081;-70
2021/06/10 00:47:13;;;;;;;9.32;6.43;;;;;;;17.88;55.62;101660.94;5093984;28;20028;-71
2021/06/10 00:49:39;;;;;;;8.68;6.60;;;;;;;17.69;55.77;101657.69;5084043;28;20034;-70
2021/06/10 00:52:04;;;;;;;10.25;6.28;;;;;;;17.61;56.13;101661.72;5074881;28;20028;-70
2021/06/10 00:54:30;;;;;;;8.63;6.20;;;;;;;17.56;56.58;101647.66;5093829;28;20055;-70
2021/06/10 00:56:56;;;;;;;8.13;6.43;;;;;;;17.50;56.73;101654.41;5093228;28;20197;-70
2021/06/10 00:59:22;;;;;;;7.72;6.30;;;;;;;17.44;56.95;101654.16;5092574;28;20208;-71
2021/06/10 01:01:48;;;;;;;8.70;5.50;;;;;;;17.39;57.00;101650.50;5081944;28;20195;-70
2021/06/10 01:04:14;;;;;;;9.43;6.28;;;;;;;17.35;57.15;101651.22;5076706;28;20065;-70
2021/06/10 01:06:50;;;;;;;7.60;5.72;;;;;;;17.32;57.07;101648.50;5074568;28;20028;-71
2021/06/10 01:09:47;;;;;;;7.28;5.70;;;;;;;17.29;57.07;101653.59;5074508;28;20470;-70
2021/06/10 01:12:27;;;;;;;7.85;5.88;;;;;;;17.16;57.62;101653.13;5069439;28;20044;-70
2021/06/10 01:14:57;;;;;;;7.38;5.72;;;;;;;17.13;57.25;101653.00;5073249;28;20020;-70
2021/06/10 01:17:23;;;;;;;7.25;5.82;;;;;;;17.02;57.76;101654.31;5060999;28;20028;-70
2021/06/10 01:20:11;;;;;;;6.32;5.15;;;;;;;16.94;57.90;101657.47;5072980;28;20075;-70
2021/06/10 01:22:57;;;;;;;8.23;5.63;;;;;;;16.92;58.12;101659.13;5073244;28;20078;-70
2021/06/10 01:25:28;;;;;;;7.20;5.40;;;;;;;16.77;58.42;101648.13;5073297;28;20037;-70
2021/06/10 01:27:57;;;;;;;7.80;5.55;;;;;;;16.76;58.58;101652.41;5073988;28;20032;-70
2021/06/10 01:30:26;;;;;;;6.88;5.38;;;;;;;16.65;58.99;101649.41;5082126;28;20028;-71
2021/06/10 01:32:55;;;;;;;6.95;4.93;;;;;;;16.67;59.24;101653.78;5093241;28;20020;-71
2021/06/10 01:35:23;;;;;;;7.35;5.53;;;;;;;16.50;59.66;101643.59;5078215;28;20037;-70
2021/06/10 01:37:51;;;;;;;10.23;6.18;;;;;;;16.42;59.85;101639.75;5072674;28;20116;-70
2021/06/10 01:40:17;;;;;;;6.93;5.15;;;;;;;16.42;60.35;101639.75;5073814;28;20043;-70
2021/06/10 01:42:43;;;;;;;7.22;6.10;;;;;;;16.35;60.67;101639.50;5091688;28;20057;-70
2021/06/10 01:45:12;;;;;;;12.27;6.50;;;;;;;16.29;60.84;101634.06;5090942;28;20613;-70
2021/06/10 01:47:43;;;;;;;7.00;6.00;;;;;;;16.18;61.16;101630.13;5084460;28;20032;-71
2021/06/10 01:50:09;;;;;;;8.13;5.93;;;;;;;16.16;61.22;101634.38;5072771;28;20032;-70
2021/06/10 01:52:37;;;;;;;9.00;5.25;;;;;;;16.14;61.23;101633.41;5072482;28;20052;-70
2021/06/10 01:55:06;;;;;;;10.43;6.85;;;;;;;16.10;61.36;101627.22;5084341;28;20466;-71
2021/06/10 01:57:33;;;;;;;7.65;6.22;;;;;;;16.05;61.50;101629.59;5093759;28;20024;-70
2021/06/10 02:00:00;;;;;;;7.88;5.82;;;;;;;15.97;61.65;101620.59;5084246;28;20048;-70
2021/06/10 02:02:26;;;;;;;8.00;5.95;;;;;;;15.96;62.08;101629.22;5076791;28;20024;-70
2021/06/10 02:04:52;;;;;;;8.43;6.43;;;;;;;15.89;62.29;101627.19;5072338;28;20020;-70
2021/06/10 02:07:19;;;;;;;9.38;6.28;;;;;;;15.89;62.22;101627.19;5088899;28;20549;-71
2021/06/10 02:09:46;;;;;;;8.30;6.28;;;;;;;15.87;62.45;101628.78;5072450;28;20063;-71
2021/06/10 02:12:12;;;;;;;9.82;6.40;;;;;;;15.82;62.63;101630.28;5088946;28;20028;-71
2021/06/10 02:14:40;;;;;;;8.63;6.70;;;;;;;15.74;62.82;101628.25;5072071;28;20082;-71
2021/06/10 02:17:06;;;;;;;8.68;6.40;;;;;;;15.66;63.08;101624.44;5090310;28;20119;-71
2021/06/10 02:19:31;;;;;;;7.93;6.15;;;;;;;15.55;63.48;101620.47;5092066;28;20549;-71
2021/06/10 02:21:56;;;;;;;10.85;7.10;;;;;;;15.59;63.43;101622.38;5092229;28;20512;-71
2021/06/10 02:24:22;;;;;;;11.95;6.90;;;;;;;15.59;63.44;101617.19;5092089;28;20346;-71
2021/06/10 02:26:47;;;;;;;7.32;6.03;;;;;;;15.52;63.71;101616.03;5077055;28;20063;-71
2021/06/10 02:29:13;;;;;;;9.77;6.63;;;;;;;15.53;63.88;101622.13;5071801;28;20071;-71
2021/06/10 02:31:39;;;;;;;10.40;6.68;;;;;;;15.51;63.75;101623.75;5077459;28;20028;-71
2021/06/10 02:34:04;;;;;;;9.15;6.82;;;;;;;15.47;63.82;101623.63;5072879;28;20032;-71
2021/06/10 02:36:30;;;;;;;12.73;6.40;;;;;;;15.44;63.73;101618.28;5075140;28;20113;-71
2021/06/10 02:39:05;;;;;;;10.38;7.03;;;;;;;15.44;63.92;101622.59;5071836;28;20027;-70
2021/06/10 02:41:32;;;;;;;8.55;6.22;;;;;;;15.38;63.99;101612.81;5072847;28;20027;-70
2021/06/10 02:43:58;;;;;;;9.90;6.32;;;;;;;15.40;64.09;101616.38;5084789;28;20476;-69
2021/06/10 02:46:25;;;;;;;8.88;7.05;;;;;;;15.44;64.05;101612.19;5086259;28;20055;-70
2021/06/10 02:48:53;;;;;;;9.95;7.45;;;;;;;15.34;64.37;101610.88;5075144;28;20052;-69
2021/06/10 02:51:19;;;;;;;9.23;6.60;;;;;;;15.29;64.55;101615.88;5071704;28;20115;-69
2021/06/10 02:53:47;;;;;;;10.15;7.70;;;;;;;15.23;64.67;101612.09;5075994;28;20035;-70
2021/06/10 02:56:12;;;;;;;11.20;6.63;;;;;;;15.17;64.82;101608.41;5080972;28;20499;-70
2021/06/10 02:58:39;;;;;;;9.80;7.38;;;;;;;15.19;64.97;101611.09;5071171;28;20048;-69
2021/06/10 03:01:05;;;;;;;9.35;6.75;;;;;;;15.16;65.03;101608.34;5078405;28;20518;-70
2021/06/10 03:03:33;;;;;;;9.43;6.75;;;;;;;15.23;64.70;101609.50;5079792;28;20028;-70
2021/06/10 03:06:00;;;;;;;8.57;6.68;;;;;;;15.22;64.22;101612.94;5082901;28;20080;-70
2021/06/10 03:08:26;;;;;;;9.05;6.72;;;;;;;15.17;64.31;101613.59;5079771;28;20081;-70
2021/06/10 03:10:56;;;;;;;9.10;7.15;;;;;;;15.13;64.77;101622.06;5079433;28;20104;-70
2021/06/10 03:13:22;;;;;;;9.80;7.10;;;;;;;15.16;64.81;101622.22;5080940;28;20073;-69
2021/06/10 03:15:48;;;;;;;10.82;7.20;;;;;;;15.16;64.51;101617.00;5079118;28;20025;-69
2021/06/10 03:18:15;;;;;;;10.45;7.68;;;;;;;15.20;64.67;101625.84;5080662;28;20070;-70
2021/06/10 03:20:41;;;;;;;9.70;7.80;;;;;;;15.22;64.89;101621.63;5079748;28;20024;-69
2021/06/10 03:23:07;;;;;;;17.70;9.00;;;;;;;15.07;65.71;101616.59;5083044;28;20031;-70
2021/06/10 03:25:33;;;;;;;21.85;9.82;;;;;;;15.09;65.36;101625.34;5078966;28;20047;-69
2021/06/10 03:28:03;;;;;;;16.90;8.82;;;;;;;14.99;65.83;101624.03;5081619;28;20453;-70
2021/06/10 03:30:29;;;;;;;13.98;9.77;;;;;;;15.00;65.52;101620.63;5081142;28;20020;-71
2021/06/10 03:32:55;;;;;;;17.58;9.20;;;;;;;15.00;65.78;101619.72;5064426;28;20024;-71
2021/06/10 03:35:21;;;;;;;22.00;9.95;;;;;;;15.03;65.90;101615.59;5062901;28;20024;-71
2021/06/10 03:37:48;;;;;;;17.60;9.02;;;;;;;15.07;65.75;101616.59;5081731;28;20020;-71
2021/06/10 03:40:15;;;;;;;21.27;10.30;;;;;;;15.04;66.24;101616.44;5080412;28;20039;-71
2021/06/10 03:42:41;;;;;;;18.88;10.63;;;;;;;15.04;66.08;101621.63;5081695;28;20017;-71
2021/06/10 03:45:08;;;;;;;17.67;10.20;;;;;;;15.09;66.20;101622.75;5080301;28;20028;-70
2021/06/10 03:47:34;;;;;;;15.27;10.07;;;;;;;15.11;65.99;101618.50;5079823;28;20445;-70
2021/06/10 03:50:00;;;;;;;16.83;10.93;;;;;;;15.17;65.85;101618.78;5082457;28;20051;-70
2021/06/10 03:52:27;;;;;;;14.23;9.88;;;;;;;15.20;65.74;101612.88;5078617;28;20391;-70
2021/06/10 03:54:52;;;;;;;16.65;10.10;;;;;;;15.28;65.53;101615.78;5080994;28;20434;-71
2021/06/10 03:57:18;;;;;;;16.80;9.88;;;;;;;15.30;65.75;101614.16;5078606;28;20119;-71
2021/06/10 03:59:43;;;;;;;15.25;9.95;;;;;;;15.39;65.39;101614.59;5081003;28;20036;-71
2021/06/10 04:02:08;;;;;;;14.98;9.32;;;;;;;15.43;65.28;101616.50;5080862;28;20031;-71
2021/06/10 04:04:34;;;;;;;15.68;9.20;;;;;;;15.60;65.04;101618.97;5080838;28;20544;-71
2021/06/10 04:06:59;;;;;;;15.25;9.40;;;;;;;15.65;64.60;101607.06;5081962;28;20024;-71
2021/06/10 04:09:25;;;;;;;10.70;8.68;;;;;;;15.75;64.51;101609.25;5085141;28;20020;-71
2021/06/10 04:11:50;;;;;;;11.50;8.95;;;;;;;15.83;64.83;101608.69;5084355;28;20028;-71
2021/06/10 04:14:16;;;;;;;11.60;8.50;;;;;;;15.91;64.65;101609.94;5083578;28;20029;-71
2021/06/10 04:16:42;;;;;;;12.70;8.98;;;;;;;15.98;64.53;101609.38;5074485;28;20024;-71
2021/06/10 04:19:09;;;;;;;16.80;9.00;;;;;;;16.13;64.36;101613.44;5076028;28;20043;-71
2021/06/10 04:21:35;;;;;;;13.02;8.25;;;;;;;16.26;63.89;101607.94;5095482;28;20024;-71
2021/06/10 04:24:01;;;;;;;12.80;8.07;;;;;;;16.39;64.04;101618.81;5085523;28;20025;-71
2021/06/10 04:26:27;;;;;;;10.93;7.75;;;;;;;16.48;62.86;101611.44;5085957;28;20473;-71
2021/06/10 04:28:53;;;;;;;12.65;8.00;;;;;;;16.55;62.69;101616.06;5093801;28;20397;-71
2021/06/10 04:31:20;;;;;;;9.85;7.18;;;;;;;16.65;62.84;101620.78;5080993;28;20036;-71
2021/06/10 04:33:46;;;;;;;10.77;8.05;;;;;;;16.75;62.42;101613.34;5074656;28;20488;-71
2021/06/10 04:36:13;;;;;;;12.45;8.00;;;;;;;16.82;62.01;101615.38;5074111;28;20116;-71
2021/06/10 04:38:38;;;;;;;9.65;7.28;;;;;;;16.86;61.50;101617.25;5073858;28;20191;-71
2021/06/10 04:41:05;;;;;;;10.30;7.15;;;;;;;17.02;61.85;101623.09;5078868;28;20475;-71
2021/06/10 04:43:30;;;;;;;12.07;7.63;;;;;;;17.08;61.54;101618.09;5094243;28;20024;-71
2021/06/10 04:45:58;;;;;;;11.98;7.93;;;;;;;17.17;61.40;101618.47;5088346;28;20082;-71
2021/06/10 04:48:24;;;;;;;11.80;8.30;;;;;;;17.33;61.65;101624.22;5082701;28;20039;-71
2021/06/10 04:50:50;;;;;;;11.23;7.28;;;;;;;17.32;61.17;101622.47;5092031;28;20027;-71
2021/06/10 04:53:16;;;;;;;12.70;7.40;;;;;;;17.50;59.77;101627.47;5074855;28;20046;-71
2021/06/10 04:55:43;;;;;;;8.80;6.55;;;;;;;17.73;58.16;101625.69;5074889;28;20024;-71
2021/06/10 04:58:08;;;;;;;9.07;6.72;;;;;;;17.85;57.65;101619.16;5077235;28;20038;-71
2021/06/10 05:00:34;;;;;;;15.10;7.15;;;;;;;18.06;56.58;101619.91;5083584;28;20020;-71
2021/06/10 05:03:00;;;;;;;12.38;7.10;;;;;;;18.10;56.32;101627.00;5092430;28;20048;-71
2021/06/10 05:05:26;;;;;;;11.70;6.25;;;;;;;18.25;55.62;101621.44;5077763;28;20428;-71
2021/06/10 05:07:51;;;;;;;10.38;6.07;;;;;;;18.31;55.08;101625.94;5073939;28;20024;-71
2021/06/10 05:10:17;;;;;;;9.85;6.32;;;;;;;18.38;54.61;101620.09;5073576;28;20095;-71
2021/06/10 05:12:43;;;;;;;9.27;6.32;;;;;;;18.45;55.03;101617.69;5074515;28;20032;-71
2021/06/10 05:15:09;;;;;;;9.25;6.25;;;;;;;18.53;55.00;101621.41;5073066;28;20028;-72
2021/06/10 05:17:34;;;;;;;9.25;6.35;;;;;;;18.57;54.33;101623.31;5086784;28;20039;-71
2021/06/10 05:20:00;;;;;;;8.93;6.15;;;;;;;18.56;55.53;101620.66;5094123;28;20040;-71
2021/06/10 05:22:27;;;;;;;10.15;6.63;;;;;;;18.31;55.05;101618.13;5075076;28;20028;-71
2021/06/10 05:24:53;;;;;;;10.65;6.40;;;;;;;17.46;56.34;101618.63;5073957;28;20028;-71
2021/06/10 05:27:18;;;;;;;6.95;5.97;;;;;;;17.99;55.95;101612.69;5075038;28;20435;-71
2021/06/10 05:29:44;;;;;;;14.35;6.32;;;;;;;18.44;54.58;101621.13;5085624;28;20024;-71
2021/06/10 05:32:10;;;;;;;9.77;6.72;;;;;;;18.48;54.02;101620.38;5090361;28;20032;-71
2021/06/10 05:34:35;;;;;;;13.70;6.68;;;;;;;18.60;54.22;101620.81;5087156;28;20028;-71
2021/06/10 05:37:01;;;;;;;8.63;6.22;;;;;;;17.99;54.62;101617.91;5072833;28;20119;-71
2021/06/10 05:39:27;;;;;;;9.90;6.28;;;;;;;18.15;56.20;101618.44;5090449;28;20017;-71
2021/06/10 05:41:53;;;;;;;12.63;5.80;;;;;;;18.43;54.19;101621.97;5081280;28;20068;-71
2021/06/10 05:44:20;;;;;;;9.50;6.63;;;;;;;18.49;54.49;101616.94;5083614;28;20046;-71
2021/06/10 05:46:48;;;;;;;11.10;6.78;;;;;;;18.52;54.45;101614.44;5085571;28;20561;-71
2021/06/10 05:49:14;;;;;;;16.10;6.30;;;;;;;18.51;55.35;101612.66;5056780;28;20062;-71
2021/06/10 05:51:39;;;;;;;8.25;6.13;;;;;;;18.66;54.51;101621.00;5074446;28;20028;-70
2021/06/10 05:54:05;;;;;;;14.63;6.47;;;;;;;18.12;55.37;101619.25;5080872;28;20027;-70
2021/06/10 05:56:30;;;;;;;9.32;6.60;;;;;;;18.03;56.46;101619.81;5088174;28;20362;-70
2021/06/10 05:58:56;;;;;;;8.25;5.60;;;;;;;18.17;55.87;101614.16;5080117;28;20036;-70
2021/06/10 06:01:22;;;;;;;8.65;5.35;;;;;;;18.37;56.35;101615.72;5083071;28;20386;-70
2021/06/10 06:03:47;;;;;;;8.32;6.22;;;;;;;18.16;56.24;101609.78;5084126;28;20032;-71
2021/06/10 06:06:17;;;;;;;7.47;6.03;;;;;;;18.82;55.26;101618.84;5083071;28;20029;-70
2021/06/10 06:08:43;;;;;;;13.70;7.55;;;;;;;18.85;55.56;101629.41;5078546;28;20535;-71
2021/06/10 06:11:09;;;;;;;17.08;5.57;;;;;;;19.21;54.36;101620.91;5080870;28;20036;-70
2021/06/10 06:13:49;;;;;;;11.80;6.10;;;;;;;19.43;53.56;101618.91;5079491;28;20032;-70
2021/06/10 06:16:19;;;;;;;7.93;5.95;;;;;;;18.90;54.34;101622.59;5081720;28;20407;-70
2021/06/10 06:18:45;;;;;;;9.07;6.47;;;;;;;19.02;53.65;101623.81;5074322;28;20056;-71
2021/06/10 06:21:12;;;;;;;14.35;5.90;;;;;;;19.62;53.08;101632.53;5077911;28;20027;-70
2021/06/10 06:23:38;;;;;;;11.98;5.47;;;;;;;19.65;52.15;101619.53;5059254;28;20486;-71
2021/06/10 06:26:04;;;;;;;9.35;6.00;;;;;;;19.09;52.86;101623.16;5076271;28;20035;-71
2021/06/10 06:28:29;;;;;;;8.50;5.80;;;;;;;19.12;52.94;101624.16;5091636;28;20035;-70
2021/06/10 06:30:55;;;;;;;8.40;5.28;;;;;;;19.10;52.73;101622.34;5084013;28;20020;-70
2021/06/10 06:33:21;;;;;;;7.57;5.65;;;;;;;19.06;52.32;101630.91;5071674;28;20028;-70
2021/06/10 06:35:46;;;;;;;7.78;5.65;;;;;;;19.11;52.23;101637.16;5072640;28;20024;-71
2021/06/10 06:38:12;;;;;;;10.68;5.68;;;;;;;18.96;53.52;101643.66;5072347;28;20016;-70
2021/06/10 06:40:49;;;;;;;11.60;5.82;;;;;;;19.37;52.95;101645.78;5072351;28;20047;-70
2021/06/10 06:43:15;;;;;;;12.52;5.60;;;;;;;19.74;52.71;101635.47;5081214;28;20024;-69
2021/06/10 06:45:41;;;;;;;12.43;5.50;;;;;;;20.42;51.00;101637.22;5082769;28;20017;-70
2021/06/10 06:48:07;;;;;;;11.05;5.30;;;;;;;20.61;50.39;101632.41;5086627;28;20130;-69
2021/06/10 06:50:33;;;;;;;15.05;5.45;;;;;;;20.95;50.27;101643.72;5084715;28;20024;-69
2021/06/10 06:52:58;;;;;;;14.88;6.65;;;;;;;20.77;50.10;101640.66;5084151;28;20033;-69
2021/06/10 06:55:24;;;;;;;12.68;6.15;;;;;;;21.03;49.75;101646.50;5082002;28;20056;-69
2021/06/10 06:57:50;;;;;;;17.17;7.72;;;;;;;21.14;49.00;101644.13;5087569;28;20029;-70
2021/06/10 07:00:16;;;;;;;11.88;6.28;;;;;;;20.98;49.82;101651.66;5084687;28;20036;-68
2021/06/10 07:02:42;;;;;;;14.38;6.55;;;;;;;21.17;48.48;101649.41;5083885;28;20025;-68
2021/06/10 07:05:09;;;;;;;9.00;4.70;;;;;;;21.12;48.65;101651.94;5079014;28;20028;-70
2021/06/10 07:07:35;;;;;;;8.77;4.43;;;;;;;21.33;47.02;101649.75;5085400;28;20020;-69
2021/06/10 07:10:00;;;;;;;9.23;5.07;;;;;;;21.49;48.17;101650.94;5082998;28;20479;-69
2021/06/10 07:12:26;;;;;;;10.10;5.05;;;;;;;21.52;47.16;101657.13;5081439;28;20069;-69
2021/06/10 07:14:51;;;;;;;9.10;6.13;;;;;;;20.96;47.68;101655.97;5084048;28;20020;-68
2021/06/10 07:17:16;;;;;;;8.75;5.25;;;;;;;21.34;47.97;101662.88;5082952;28;20480;-69
2021/06/10 07:19:42;;;;;;;7.30;4.63;;;;;;;21.45;46.09;101656.13;5084240;28;20016;-69
2021/06/10 07:22:09;;;;;;;6.28;5.18;;;;;;;21.69;45.56;101661.84;5081999;28;20436;-69
2021/06/10 07:24:34;;;;;;;5.32;3.78;;;;;;;21.95;46.44;101667.59;5083465;28;20035;-70
2021/06/10 07:26:59;;;;;;;6.38;3.72;;;;;;;22.17;46.91;101668.88;5085605;28;20016;-69
2021/06/10 07:29:25;;;;;;;7.20;4.25;;;;;;;22.17;44.16;101663.63;5092169;28;20051;-70
2021/06/10 07:31:51;;;;;;;5.90;3.80;;;;;;;22.03;45.24;101667.75;5086787;28;20048;-70
2021/06/10 07:34:16;;;;;;;7.57;4.68;;;;;;;22.05;45.87;101668.66;5082923;28;20020;-70
2021/06/10 07:36:42;;;;;;;5.82;3.92;;;;;;;22.30;45.80;101661.19;5080920;28;20327;-70
2021/06/10 07:39:09;;;;;;;6.70;3.05;;;;;;;22.56;45.10;101663.41;5081214;28;20032;-70
2021/06/10 07:41:36;;;;;;;4.15;2.67;;;;;;;22.85;43.55;101662.97;5082448;28;20025;-70
2021/06/10 07:44:02;;;;;;;7.18;3.10;;;;;;;23.18;43.36;101677.44;5085866;28;20023;-69
2021/06/10 07:46:27;;;;;;;10.18;3.25;;;;;;;23.21;42.06;101677.47;5080854;28;20028;-69
2021/06/10 07:48:53;;;;;;;8.88;3.30;;;;;;;23.57;42.21;101676.19;5082712;28;20031;-69
2021/06/10 07:51:18;;;;;;;7.45;2.90;;;;;;;23.68;40.95;101671.06;5085321;28;20111;-70
2021/06/10 07:53:44;;;;;;;4.32;2.83;;;;;;;23.93;39.57;101669.59;5084390;28;20036;-69
2021/06/10 07:56:09;;;;;;;11.27;2.95;;;;;;;23.98;38.12;101671.38;5083097;28;20059;-71
2021/06/10 07:58:35;;;;;;;3.80;2.72;;;;;;;24.30;37.35;101674.31;5085308;28;20072;-70
2021/06/10 08:01:01;;;;;;;3.40;2.40;;;;;;;24.34;37.28;101662.06;5081095;28;20037;-69
2021/06/10 08:03:27;;;;;;;6.28;2.97;;;;;;;24.47;37.43;101663.94;5094168;28;20031;-70
2021/06/10 08:05:54;;;;;;;6.13;2.92;;;;;;;23.91;39.06;101668.69;5084800;28;20095;-70
2021/06/10 08:08:20;;;;;;;6.30;2.85;;;;;;;24.43;37.39;101664.78;5083407;28;20377;-70
2021/06/10 08:11:23;;;;;;;9.02;3.20;;;;;;;24.30;37.46;101668.19;5085258;28;20103;-69
2021/06/10 08:13:48;;;;;;;4.90;2.90;;;;;;;24.55;38.17;101665.75;5089136;28;20107;-70
2021/06/10 08:16:14;;;;;;;4.97;2.75;;;;;;;24.60;37.55;101672.81;5094633;28;20107;-70
2021/06/10 08:18:40;;;;;;;7.05;2.80;;;;;;;24.42;36.52;101663.00;5093800;28;20469;-70
2021/06/10 08:21:05;;;;;;;5.82;2.78;;;;;;;24.36;36.88;101669.09;5093751;28;20518;-70
2021/06/10 08:23:32;;;;;;;3.80;2.42;;;;;;;24.54;38.80;101671.88;5095399;28;20024;-70
2021/06/10 08:26:00;;;;;;;4.93;3.03;;;;;;;25.08;38.58;101675.78;5095439;28;20476;-71
2021/06/10 08:28:28;;;;;;;6.68;3.38;;;;;;;25.65;36.54;101677.78;5094068;28;20027;-70
2021/06/10 08:30:55;;;;;;;8.80;4.45;;;;;;;26.04;35.07;101669.09;5095588;28;20020;-70
2021/06/10 08:33:20;;;;;;;6.13;3.42;;;;;;;26.22;35.05;101674.41;5094348;28;20047;-70
2021/06/10 08:35:46;;;;;;;5.55;3.95;;;;;;;26.43;34.17;101662.06;5094163;28;20059;-70
2021/06/10 08:38:12;;;;;;;8.45;5.05;;;;;;;26.73;33.94;101670.81;5094050;28;20028;-70
2021/06/10 08:40:38;;;;;;;9.50;4.07;;;;;;;27.00;33.14;101663.75;5095188;28;20164;-70
2021/06/10 08:43:05;;;;;;;6.13;3.53;;;;;;;27.04;34.33;101670.81;5094122;28;20156;-71
2021/06/10 08:45:32;;;;;;;7.55;4.53;;;;;;;26.94;33.11;101671.69;5095031;28;20016;-71
2021/06/10 08:47:58;;;;;;;6.47;5.00;;;;;;;26.61;33.70;101676.13;5093796;28;20052;-70
2021/06/10 08:50:26;;;;;;;7.60;5.10;;;;;;;26.56;34.28;101672.63;5093519;28;20095;-70
2021/06/10 08:52:53;;;;;;;6.50;4.63;;;;;;;26.63;34.45;101674.38;5085415;28;20081;-71
2021/06/10 08:55:19;;;;;;;11.25;4.95;;;;;;;26.80;34.24;101669.94;5089614;28;20345;-70
2021/06/10 08:57:45;;;;;;;6.13;4.53;;;;;;;26.97;34.90;101663.75;5092764;28;20104;-70
2021/06/10 09:00:12;;;;;;;26.17;5.70;;;;;;;27.21;32.97;101672.50;5086422;28;20047;-70
2021/06/10 09:02:38;;;;;;;24.55;4.63;;;;;;;27.34;33.68;101671.56;5084196;28;20028;-70
2021/06/10 09:05:05;;;;;;;6.50;4.15;;;;;;;27.60;33.34;101678.50;5082549;28;20104;-70
2021/06/10 09:07:38;;;;;;;9.10;4.90;;;;;;;27.70;33.19;101682.88;5082393;28;20027;-70
2021/06/10 09:10:32;;;;;;;7.28;5.32;;;;;;;27.89;31.13;101666.00;5080734;28;20570;-70
2021/06/10 09:13:01;;;;;;;8.95;4.68;;;;;;;28.07;31.49;101660.56;5082772;28;20020;-70
2021/06/10 09:15:47;;;;;;;7.70;5.35;;;;;;;28.30;32.34;101663.97;5080773;28;20381;-70
2021/06/10 09:18:13;;;;;;;7.78;5.07;;;;;;;28.53;32.27;101667.25;5083418;28;20027;-71
2021/06/10 09:20:42;;;;;;;11.75;5.93;;;;;;;28.90;30.66;101662.50;5083102;28;20024;-71
2021/06/10 09:23:16;;;;;;;10.75;5.68;;;;;;;29.36;30.00;101661.06;5083810;28;20024;-71
2021/06/10 09:25:43;;;;;;;8.68;4.95;;;;;;;29.91;30.12;101662.06;5084527;28;20039;-71
2021/06/10 09:28:09;;;;;;;9.13;5.25;;;;;;;30.46;27.72;101657.63;5083496;28;20078;-70
2021/06/10 09:30:37;;;;;;;9.30;5.45;;;;;;;31.77;26.23;101677.19;5083699;28;20028;-70
2021/06/10 09:33:24;;;;;;;7.78;6.35;;;;;;;33.67;23.11;101660.53;5083945;28;20101;-70
2021/06/10 09:35:50;;;;;;;8.27;4.82;;;;;;;34.60;22.42;101662.81;5084135;28;20030;-70
2021/06/10 09:38:20;;;;;;;7.85;4.63;;;;;;;35.35;22.23;101666.28;5086039;28;20032;-71
2021/06/10 09:40:51;;;;;;;7.70;6.38;;;;;;;35.10;20.87;101659.22;5085954;28;20024;-69
2021/06/10 09:43:17;;;;;;;10.93;5.90;;;;;;;35.16;21.85;101655.44;5085889;28;20032;-70
2021/06/10 09:45:52;;;;;;;10.32;5.50;;;;;;;36.07;20.89;101654.47;5072934;28;20035;-70
2021/06/10 09:48:30;;;;;;;10.15;5.43;;;;;;;37.02;19.83;101646.78;5078966;28;20107;-70
2021/06/10 09:50:55;;;;;;;9.70;6.10;;;;;;;37.31;19.19;101642.72;5080043;28;20016;-70
2021/06/10 09:53:23;;;;;;;8.40;6.38;;;;;;;36.72;20.18;101639.19;5089499;28;20068;-70
2021/06/10 09:55:54;;;;;;;7.72;5.78;;;;;;;37.17;19.78;101646.06;5081369;28;20541;-70
2021/06/10 09:58:35;;;;;;;7.30;5.75;;;;;;;36.67;20.51;101644.75;5077157;28;20154;-69
2021/06/10 10:01:10;;;;;;;8.50;5.47;;;;;;;36.81;19.90;101644.16;5082331;28;20025;-69
2021/06/10 10:03:44;;;;;;;10.50;6.30;;;;;;;37.15;19.64;101649.78;5079971;28;20020;-70
2021/06/10 10:06:23;;;;;;;9.18;5.72;;;;;;;37.47;19.65;101653.59;5074526;28;20021;-71
2021/06/10 10:08:59;;;;;;;9.50;6.38;;;;;;;37.64;19.47;101649.22;5072317;28;20028;-69
2021/06/10 10:11:26;;;;;;;10.57;7.53;;;;;;;37.25;19.20;101643.88;5081462;28;20027;-70
2021/06/10 10:13:53;;;;;;;11.20;7.85;;;;;;;35.66;21.11;101649.03;5075737;28;20021;-70
2021/06/10 10:16:27;;;;;;;12.30;8.50;;;;;;;36.13;20.28;101644.44;5083126;28;20024;-70
2021/06/10 10:18:54;;;;;;;10.65;7.53;;;;;;;36.19;21.32;101652.22;5076286;28;20119;-69
2021/06/10 10:21:28;;;;;;;9.02;7.13;;;;;;;36.26;20.95;101642.97;5077226;28;20020;-69
2021/06/10 10:24:06;;;;;;;10.68;6.72;;;;;;;35.69;22.15;101643.53;5078770;28;20024;-69
2021/06/10 10:26:32;;;;;;;10.50;7.57;;;;;;;36.06;21.28;101644.69;5079877;28;20564;-68
2021/06/10 10:28:59;;;;;;;10.68;7.60;;;;;;;36.00;20.68;101636.03;5080011;28;20051;-68
2021/06/10 10:31:26;;;;;;;9.88;7.15;;;;;;;36.34;20.50;101639.94;5080189;28;20020;-70
2021/06/10 10:33:52;;;;;;;10.30;7.78;;;;;;;36.25;20.63;101641.22;5082035;28;20031;-73
2021/06/10 10:36:28;;;;;;;10.38;8.57;;;;;;;35.40;21.58;101642.88;5079475;28;20036;-75
2021/06/10 10:39:03;;;;;;;12.50;8.60;;;;;;;33.09;24.39;101638.25;5079350;28;20031;-75
2021/06/10 10:41:29;;;;;;;12.43;8.32;;;;;;;31.99;26.12;101635.84;5078885;28;20019;-73
2021/06/10 10:44:26;;;;;;;13.60;7.95;;;;;;;33.35;23.79;101633.88;5079803;28;20106;-74
2021/06/10 10:47:10;;;;;;;13.05;8.45;;;;;;;34.23;23.10;101632.88;5084658;28;20036;-72
2021/06/10 10:49:46;;;;;;;11.95;7.68;;;;;;;35.05;22.19;101629.06;5074960;28;20377;-73
2021/06/10 10:52:14;;;;;;;8.93;6.72;;;;;;;35.92;21.63;101633.66;5089119;28;20020;-71
2021/06/10 10:54:42;;;;;;;9.52;7.20;;;;;;;35.13;22.05;101639.50;5090209;28;20116;-71
2021/06/10 10:57:31;;;;;;;9.73;7.53;;;;;;;33.55;23.73;101635.13;5088957;28;20030;-72
2021/06/10 10:59:58;;;;;;;12.73;7.88;;;;;;;31.54;26.23;101626.25;5086045;28;20184;-71
2021/06/10 11:02:26;;;;;;;10.85;7.85;;;;;;;31.53;26.49;101629.81;5088497;28;20036;-72
2021/06/10 11:04:58;;;;;;;9.80;7.10;;;;;;;32.33;26.34;101617.22;5088393;28;20056;-72
2021/06/10 11:07:51;;;;;;;8.75;6.95;;;;;;;32.71;25.70;101632.19;5055582;28;20024;-72
2021/06/10 11:10:40;;;;;;;9.15;6.57;;;;;;;33.09;25.36;101621.38;5076216;28;20084;-72
2021/06/10 11:13:28;;;;;;;9.27;6.95;;;;;;;33.10;24.37;101623.97;5080764;28;20032;-72
2021/06/10 11:16:03;;;;;;;10.25;6.32;;;;;;;33.05;25.13;101625.91;5089929;28;20027;-72
2021/06/10 11:18:48;;;;;;;8.65;7.60;;;;;;;32.44;25.21;101618.72;5092784;28;20244;-73
2021/06/10 11:21:40;;;;;;;9.48;6.75;;;;;;;31.84;27.03;101626.44;5089670;28;20024;-72
2021/06/10 11:24:13;;;;;;;10.45;7.38;;;;;;;31.72;26.79;101625.81;5089620;28;20029;-74
2021/06/10 11:27:00;;;;;;;9.35;6.53;;;;;;;31.90;26.91;101628.97;5082228;28;20028;-74